Terminal Aerodrome Forecast
Issued by NWS

Home | Current Version | Previous Version | Text Only | Print | Product List | Glossary On
Versions: 1 2 3 4 5 6 7 8 9 10 11 12 13 14
000
FTUS41 KALY 281142
TAFPSF
TAF
KPSF 281142Z 2812/2912 VRB03KT P6SM SCT100 BKN250
      TEMPO 2812/2813 4SM BR
     FM281600 26006KT P6SM SCT060
     FM282300 VRB03KT P6SM FEW060 SCT250
     FM290800 00000KT 4SM BR FEW003=

USA.gov is the U.S. government's official web portal to all federal, state and local government web resources and services.